Time;durP1;ratioP1;P1;durP2;ratioP2;P2;SDS_P1;SDS_P2;PMS_P1;PMS_P2;Temp;Humidity;BMP_temperature;BMP_pressure;BME280_temperature;BME280_humidity;BME280_pressure;Samples;Min_cycle;Max_cycle;Signal;HPM_P1;HPM_P2
2022/10/11 00:01:19;;;;;;;10.18;1.55;;;;;;;7.67;64.91;101199.97;4984071;28;20046;-41
2022/10/11 00:03:46;;;;;;;19.80;1.88;;;;;;;7.66;64.26;101208.56;4982494;28;20058;-39
2022/10/11 00:06:12;;;;;;;11.55;1.33;;;;;;;7.65;63.86;101206.81;4981058;28;20145;-40
2022/10/11 00:08:39;;;;;;;7.40;2.47;;;;;;;7.67;65.21;101209.44;4981612;28;20587;-40
2022/10/11 00:11:06;;;;;;;11.45;2.20;;;;;;;7.65;64.14;101211.97;4977485;28;20128;-40
2022/10/11 00:13:33;;;;;;;11.38;1.80;;;;;;;7.64;65.35;101209.34;4979019;28;20050;-39
2022/10/11 00:16:00;;;;;;;16.77;3.70;;;;;;;7.64;64.91;101209.34;4979835;28;20049;-40
2022/10/11 00:18:27;;;;;;;12.13;1.90;;;;;;;7.62;65.01;101206.72;4979784;28;20050;-40
2022/10/11 00:21:07;;;;;;;7.47;2.90;;;;;;;7.61;64.66;101212.72;4977374;28;20053;-40
2022/10/11 00:23:34;;;;;;;8.98;1.55;;;;;;;7.61;64.60;101214.41;4978517;28;20046;-39
2022/10/11 00:26:05;;;;;;;10.20;2.78;;;;;;;7.59;65.13;101216.94;4979096;28;20104;-40
2022/10/11 00:28:34;;;;;;;10.60;1.67;;;;;;;7.57;64.89;101208.31;4968378;28;20042;-39
2022/10/11 00:31:06;;;;;;;11.82;2.95;;;;;;;7.56;64.25;101211.69;4977381;28;20069;-40
2022/10/11 00:33:34;;;;;;;9.43;2.00;;;;;;;7.54;64.71;101208.22;4982920;28;20057;-41
2022/10/11 00:36:03;;;;;;;6.22;2.70;;;;;;;7.53;65.73;101212.50;4984123;28;20079;-40
2022/10/11 00:38:30;;;;;;;9.40;2.05;;;;;;;7.51;65.41;101224.47;4989699;28;20049;-40
2022/10/11 00:40:59;;;;;;;11.95;4.43;;;;;;;7.51;65.35;101223.59;4988786;28;20046;-40
2022/10/11 00:43:28;;;;;;;9.27;3.30;;;;;;;7.49;64.28;101220.13;4989178;28;20562;-40
2022/10/11 00:48:49;;;;;;;14.02;2.45;;;;;;;7.40;65.21;101221.56;5083487;27;20895;-40
2022/10/11 00:51:22;;;;;;;15.35;2.05;;;;;;;7.43;64.27;101225.97;5025395;28;20131;-40
2022/10/11 00:53:50;;;;;;;15.05;2.22;;;;;;;7.42;65.25;101226.78;5048307;28;20144;-40
2022/10/11 00:56:26;;;;;;;11.25;2.50;;;;;;;7.40;64.92;101226.72;5048282;28;20550;-40
2022/10/11 00:58:54;;;;;;;9.90;2.25;;;;;;;7.39;64.35;101230.13;5036007;28;20068;-40
2022/10/11 01:01:21;;;;;;;5.03;1.75;;;;;;;7.38;64.64;101230.09;5050600;28;20144;-40
2022/10/11 01:03:48;;;;;;;9.75;2.10;;;;;;;7.37;64.64;101231.81;5052988;28;20056;-40
2022/10/11 01:06:14;;;;;;;12.40;1.85;;;;;;;7.35;65.48;101230.00;5056944;28;20132;-41
2022/10/11 01:08:42;;;;;;;8.02;1.80;;;;;;;7.33;64.83;101227.41;5054282;28;20167;-39
2022/10/11 01:11:13;;;;;;;13.02;2.80;;;;;;;7.32;64.66;101226.50;5052286;28;20128;-40
2022/10/11 01:13:57;;;;;;;11.40;2.00;;;;;;;7.31;64.87;101231.63;5052467;28;20709;-40
2022/10/11 01:16:41;;;;;;;17.27;2.15;;;;;;;7.28;65.91;101226.38;5052779;28;20160;-40
2022/10/11 01:21:52;;;;;;;11.45;3.10;;;;;;;7.29;66.45;101230.69;5041660;27;20409;-40
2022/10/11 01:30:30;;;;;;;9.65;1.90;;;;;;;7.23;65.70;101222.78;5055435;27;20422;-40
2022/10/11 01:33:12;;;;;;;15.15;1.92;;;;;;;7.19;65.75;101224.38;5020663;28;20429;-40
2022/10/11 01:35:47;;;;;;;10.02;1.88;;;;;;;7.19;66.28;101226.97;5019407;28;20073;-39
2022/10/11 01:38:37;;;;;;;12.73;1.98;;;;;;;7.12;65.97;101215.59;5019743;28;20154;-39
2022/10/11 01:41:08;;;;;;;;;;;;;;;7.03;65.37;101215.31;5018305;28;20073;-40
2022/10/11 01:43:38;;;;;;;8.77;1.70;;;;;;;7.08;66.00;101218.91;5016963;28;19929;-39
2022/10/11 01:46:07;;;;;;;10.80;2.08;;;;;;;7.09;65.28;101220.66;5015756;28;20157;-39
2022/10/11 01:48:47;;;;;;;9.82;2.05;;;;;;;7.07;65.51;101214.59;5015371;28;20072;-40
2022/10/11 01:51:14;;;;;;;10.00;2.75;;;;;;;7.07;66.10;101212.00;5022417;28;20045;-39
2022/10/11 01:56:59;;;;;;;9.13;1.67;;;;;;;7.01;65.71;101211.81;5000770;27;20415;-40
2022/10/11 02:06:02;;;;;;;11.88;3.40;;;;;;;6.87;65.00;101207.13;5006243;28;20491;-39
2022/10/11 02:11:15;;;;;;;16.70;4.22;;;;;;;7.42;65.25;101214.75;5017867;28;20429;-39
2022/10/11 02:13:49;;;;;;;10.10;2.33;;;;;;;7.05;66.05;101208.50;5007972;28;20065;-40
2022/10/11 02:16:21;;;;;;;10.98;2.40;;;;;;;6.96;66.38;101208.22;4998724;28;20066;-39
2022/10/11 02:18:51;;;;;;;14.52;2.08;;;;;;;6.89;66.26;101208.03;4998049;28;20521;-40
2022/10/11 02:21:20;;;;;;;8.27;2.03;;;;;;;6.85;65.35;101210.50;5001576;28;20100;-39
2022/10/11 02:23:52;;;;;;;8.40;1.75;;;;;;;6.81;66.13;101210.38;5037104;28;20054;-40
2022/10/11 02:26:20;;;;;;;10.35;1.95;;;;;;;6.80;67.20;101207.75;5008703;28;20841;-40
2022/10/11 02:28:51;;;;;;;8.63;2.22;;;;;;;6.78;65.50;101199.09;5004863;28;20141;-40
2022/10/11 02:31:19;;;;;;;10.88;1.77;;;;;;;6.77;67.10;101202.50;5004078;28;20057;-39
2022/10/11 02:33:54;;;;;;;10.23;1.85;;;;;;;6.76;66.40;101195.63;5002085;28;20056;-39
2022/10/11 02:36:28;;;;;;;16.67;2.30;;;;;;;6.76;66.35;101196.47;5006177;28;20149;-40
2022/10/11 02:39:11;;;;;;;8.55;2.35;;;;;;;6.73;66.32;101195.50;4980918;28;20134;-40
2022/10/11 02:41:39;;;;;;;10.40;2.33;;;;;;;6.74;66.93;101194.69;4985278;28;20475;-39
2022/10/11 02:44:12;;;;;;;8.18;1.65;;;;;;;6.74;66.58;101197.25;4984171;28;20134;-39
2022/10/11 02:46:40;;;;;;;8.10;1.88;;;;;;;6.72;65.84;101188.63;4982777;28;20053;-40
2022/10/11 02:49:07;;;;;;;10.50;1.52;;;;;;;6.72;66.74;101193.78;4996672;28;20060;-39
2022/10/11 02:51:35;;;;;;;9.52;1.63;;;;;;;6.69;66.79;101194.56;5006087;28;20558;-40
2022/10/11 02:54:01;;;;;;;9.43;2.05;;;;;;;6.65;66.99;101193.56;5037802;28;20054;-41
2022/10/11 02:56:28;;;;;;;7.97;1.23;;;;;;;6.63;66.04;101195.22;5001374;28;20176;-39
2022/10/11 02:58:54;;;;;;;8.60;1.60;;;;;;;6.62;67.35;101197.75;4990444;28;20121;-39
2022/10/11 03:01:21;;;;;;;8.25;2.22;;;;;;;6.59;67.34;101195.97;4982111;28;20129;-40
2022/10/11 03:03:48;;;;;;;13.23;2.55;;;;;;;6.58;65.82;101195.91;4981107;28;20053;-40
2022/10/11 03:06:14;;;;;;;9.88;2.20;;;;;;;6.57;65.88;101195.03;4983511;28;20058;-39
2022/10/11 03:08:41;;;;;;;11.27;2.28;;;;;;;6.55;66.77;101194.09;4991923;28;20042;-41
2022/10/11 03:11:08;;;;;;;13.00;1.75;;;;;;;6.53;66.67;101188.03;4981252;28;20057;-40
2022/10/11 03:13:34;;;;;;;9.70;1.92;;;;;;;6.51;67.42;101200.84;4982728;28;20133;-40
2022/10/11 03:16:01;;;;;;;9.60;1.98;;;;;;;6.50;66.55;101198.22;4979217;28;20054;-40
2022/10/11 03:18:30;;;;;;;9.00;1.85;;;;;;;6.48;66.27;101194.75;4991308;28;20056;-40
2022/10/11 03:20:56;;;;;;;13.75;1.92;;;;;;;6.45;67.03;101192.06;4980542;28;20730;-39
2022/10/11 03:23:23;;;;;;;11.43;2.10;;;;;;;6.42;66.32;101188.53;4980716;28;20486;-39
2022/10/11 03:25:50;;;;;;;6.75;2.15;;;;;;;6.42;66.77;101193.69;4967937;28;20050;-40
2022/10/11 03:28:18;;;;;;;6.70;2.20;;;;;;;6.41;67.15;101184.22;4964635;28;20051;-40
2022/10/11 03:30:49;;;;;;;8.13;1.73;;;;;;;6.41;66.82;101189.38;4979983;28;20397;-38
2022/10/11 03:33:16;;;;;;;10.07;1.95;;;;;;;6.40;66.85;101192.78;5000332;28;20772;-39
2022/10/11 03:35:44;;;;;;;7.07;1.27;;;;;;;6.38;66.54;101191.84;5003478;28;20076;-39
2022/10/11 03:38:13;;;;;;;8.25;2.65;;;;;;;6.34;66.56;101197.72;4979204;28;20051;-40
2022/10/11 03:40:41;;;;;;;6.28;1.45;;;;;;;6.32;66.63;101194.22;4978063;28;20049;-39
2022/10/11 03:43:09;;;;;;;8.07;1.50;;;;;;;6.30;66.71;101188.16;4972063;28;20063;-40
2022/10/11 03:45:36;;;;;;;9.80;1.85;;;;;;;6.28;66.69;101184.63;4970288;28;20077;-39
2022/10/11 03:48:03;;;;;;;7.70;1.50;;;;;;;6.26;67.52;101188.88;4980817;28;20077;-40
2022/10/11 03:50:30;;;;;;;10.25;1.85;;;;;;;6.23;67.27;101193.91;4985956;28;20050;-40
2022/10/11 03:52:56;;;;;;;7.35;1.48;;;;;;;6.22;67.05;101187.00;4978883;28;20648;-40
2022/10/11 03:55:23;;;;;;;8.95;1.98;;;;;;;6.20;66.63;101188.66;4980154;28;20137;-40
2022/10/11 03:57:49;;;;;;;7.00;1.80;;;;;;;6.18;67.80;101191.16;4975780;28;20050;-40
2022/10/11 04:00:16;;;;;;;8.75;1.73;;;;;;;6.17;67.42;101194.56;4972336;28;20054;-39
2022/10/11 04:02:43;;;;;;;7.90;1.73;;;;;;;6.16;66.69;101198.84;4969648;28;20113;-40
2022/10/11 04:05:11;;;;;;;13.10;2.00;;;;;;;6.15;67.35;101202.22;4980120;28;20078;-40
2022/10/11 04:07:38;;;;;;;7.68;1.80;;;;;;;6.15;66.52;101206.53;4993947;28;20061;-39
2022/10/11 04:10:06;;;;;;;7.70;1.55;;;;;;;6.12;67.46;101214.97;4999197;28;20138;-39
2022/10/11 04:12:33;;;;;;;8.50;2.28;;;;;;;6.11;67.88;101215.81;4986982;28;20129;-40
2022/10/11 04:14:59;;;;;;;8.55;1.58;;;;;;;6.08;67.88;101210.56;4991270;28;20155;-39
2022/10/11 04:17:26;;;;;;;11.30;1.73;;;;;;;6.04;66.75;101209.59;4974223;28;20137;-39
2022/10/11 04:19:52;;;;;;;8.93;2.17;;;;;;;6.01;67.85;101206.03;4971280;28;20051;-39
2022/10/11 04:22:19;;;;;;;8.85;2.00;;;;;;;5.97;67.83;101211.84;4990096;28;20145;-40
2022/10/11 04:24:46;;;;;;;8.73;1.77;;;;;;;5.93;67.76;101210.88;4988746;28;20055;-40
2022/10/11 04:27:12;;;;;;;7.03;2.25;;;;;;;5.91;67.78;101215.97;4985868;28;20052;-39
2022/10/11 04:29:39;;;;;;;8.35;1.38;;;;;;;5.88;66.78;101218.41;4983264;28;20042;-40
2022/10/11 04:32:05;;;;;;;7.25;1.50;;;;;;;5.87;67.08;101224.38;4968537;28;20051;-43
2022/10/11 04:34:32;;;;;;;10.57;2.05;;;;;;;5.83;67.45;101219.06;4965144;28;20063;-39
2022/10/11 04:36:59;;;;;;;13.10;2.55;;;;;;;5.81;66.97;101221.59;4974802;28;20046;-40
2022/10/11 04:39:25;;;;;;;6.88;1.85;;;;;;;5.79;67.98;101218.09;4977570;28;20049;-39
2022/10/11 04:41:52;;;;;;;12.07;1.23;;;;;;;5.78;67.97;101216.38;4990165;28;20050;-40
2022/10/11 04:44:18;;;;;;;10.15;1.95;;;;;;;5.77;67.79;101215.47;4988217;28;20128;-40
2022/10/11 04:46:45;;;;;;;6.38;1.92;;;;;;;5.76;67.08;101223.13;4969560;28;20128;-39
2022/10/11 04:49:11;;;;;;;9.50;1.75;;;;;;;5.76;67.43;101225.69;4964884;28;20059;-40
2022/10/11 04:51:38;;;;;;;9.05;1.50;;;;;;;5.75;68.13;101222.25;4966455;28;20146;-39
2022/10/11 04:54:04;;;;;;;9.20;2.15;;;;;;;5.74;67.35;101224.78;4971037;28;20149;-39
2022/10/11 04:56:31;;;;;;;10.52;2.40;;;;;;;5.73;67.47;101234.19;4969420;28;20058;-40
2022/10/11 04:58:58;;;;;;;4.15;1.73;;;;;;;5.70;67.69;101238.31;4983852;28;20072;-40
2022/10/11 05:01:24;;;;;;;8.85;2.00;;;;;;;5.69;66.97;101236.56;4966947;28;20066;-39
2022/10/11 05:03:51;;;;;;;7.45;1.50;;;;;;;5.66;67.19;101251.09;4960813;28;20083;-40
2022/10/11 05:06:17;;;;;;;8.60;2.42;;;;;;;5.62;68.15;101251.78;4974084;28;20466;-40
2022/10/11 05:08:44;;;;;;;9.30;1.70;;;;;;;5.58;67.65;101255.06;4964987;28;20051;-40
2022/10/11 05:11:12;;;;;;;7.90;2.30;;;;;;;5.55;67.58;101248.94;4967647;28;20089;-39
2022/10/11 05:13:42;;;;;;;13.60;2.20;;;;;;;5.53;67.23;101242.03;4968257;28;20166;-39
2022/10/11 05:16:09;;;;;;;7.22;1.67;;;;;;;5.51;67.34;101238.53;5000243;28;20516;-42
2022/10/11 05:18:38;;;;;;;7.25;2.10;;;;;;;5.50;67.55;101246.19;4964713;28;20049;-39
2022/10/11 05:23:41;;;;;;;12.68;4.05;;;;;;;5.50;68.17;101256.44;5044903;28;20405;-39
2022/10/11 05:26:08;;;;;;;10.32;2.45;;;;;;;5.50;67.97;101251.31;4984424;28;20053;-39
2022/10/11 05:28:35;;;;;;;10.00;1.20;;;;;;;5.50;67.50;101249.63;4982827;28;20050;-39
2022/10/11 05:31:02;;;;;;;9.82;3.38;;;;;;;5.49;67.64;101247.88;4985114;28;20169;-39
2022/10/11 05:33:29;;;;;;;8.15;1.50;;;;;;;5.49;68.29;101239.28;4978876;28;20525;-39
2022/10/11 05:35:56;;;;;;;8.63;2.92;;;;;;;5.48;67.94;101252.97;4977689;28;20065;-39
2022/10/11 05:38:22;;;;;;;16.40;3.47;;;;;;;5.49;67.64;101252.13;4978152;28;20049;-39
2022/10/11 05:40:50;;;;;;;5.90;2.58;;;;;;;5.49;67.99;101253.03;4979923;28;20160;-39
2022/10/11 05:43:17;;;;;;;9.27;3.17;;;;;;;5.49;68.53;101247.88;4979098;28;20127;-40
2022/10/11 05:45:44;;;;;;;7.63;3.05;;;;;;;5.50;67.65;101251.31;4979093;28;20134;-40
2022/10/11 05:48:11;;;;;;;7.75;2.90;;;;;;;5.48;68.51;101259.00;4981372;28;20498;-39
2022/10/11 05:50:38;;;;;;;8.95;4.88;;;;;;;5.48;67.67;101259.00;4981713;28;20038;-39
2022/10/11 05:53:05;;;;;;;9.90;3.75;;;;;;;5.46;67.85;101254.59;4981131;28;20129;-38
2022/10/11 05:55:41;;;;;;;5.85;2.15;;;;;;;5.45;67.98;101257.97;4980906;28;20399;-39
2022/10/11 05:58:12;;;;;;;11.45;2.67;;;;;;;5.45;68.20;101255.41;4977183;28;20477;-39
2022/10/11 06:00:40;;;;;;;9.00;3.13;;;;;;;5.44;68.26;101256.25;4977175;28;20046;-39
2022/10/11 06:03:09;;;;;;;18.52;5.07;;;;;;;5.43;68.38;101254.50;4977324;28;20074;-38
2022/10/11 06:05:35;;;;;;;7.97;3.55;;;;;;;5.42;67.94;101258.75;4977688;28;20169;-39
2022/10/11 06:08:04;;;;;;;9.57;3.10;;;;;;;5.42;68.47;101257.88;4979516;28;20094;-39
2022/10/11 06:10:31;;;;;;;10.07;1.38;;;;;;;5.38;68.20;101257.75;4979873;28;20082;-39
2022/10/11 06:12:58;;;;;;;16.00;2.88;;;;;;;5.36;68.04;101243.97;4979473;28;20125;-39
2022/10/11 06:15:25;;;;;;;11.38;2.85;;;;;;;5.36;67.73;101259.38;4978146;28;20060;-39
2022/10/11 06:17:52;;;;;;;16.05;3.42;;;;;;;5.35;68.62;101252.50;4979130;28;20553;-39
2022/10/11 06:20:18;;;;;;;13.35;4.07;;;;;;;5.35;68.55;101251.63;4978608;28;20918;-39
2022/10/11 06:22:45;;;;;;;10.93;3.90;;;;;;;5.34;67.80;101263.56;4978488;28;20125;-39
2022/10/11 06:25:11;;;;;;;9.57;3.67;;;;;;;5.35;67.75;101262.78;4980364;28;20070;-39
2022/10/11 06:27:38;;;;;;;9.18;1.92;;;;;;;5.34;68.73;101261.00;4979636;28;20625;-39
2022/10/11 06:30:06;;;;;;;8.32;1.60;;;;;;;5.35;68.24;101260.22;4977393;28;20391;-39
2022/10/11 06:32:32;;;;;;;13.52;3.58;;;;;;;5.35;68.44;101265.34;4978570;28;20053;-38
2022/10/11 06:34:59;;;;;;;11.00;1.90;;;;;;;5.38;68.63;101265.44;4968537;28;20511;-39
2022/10/11 06:37:25;;;;;;;8.88;2.65;;;;;;;5.39;68.65;101262.09;4962752;28;20162;-38
2022/10/11 06:39:52;;;;;;;9.75;3.22;;;;;;;5.42;68.75;101268.13;4967914;28;20173;-43
2022/10/11 06:42:19;;;;;;;26.55;7.88;;;;;;;5.44;68.91;101274.22;4968071;28;20588;-39
2022/10/11 06:44:45;;;;;;;16.50;4.13;;;;;;;5.45;68.18;101269.16;4967011;28;20138;-39
2022/10/11 06:47:12;;;;;;;14.27;4.20;;;;;;;5.47;68.84;101266.66;4967742;28;20082;-39
2022/10/11 06:49:38;;;;;;;13.43;3.75;;;;;;;5.50;68.50;101272.75;4963126;28;20070;-39
2022/10/11 06:52:05;;;;;;;11.52;4.50;;;;;;;5.53;68.24;101266.84;4964208;28;20740;-39
2022/10/11 06:54:31;;;;;;;8.68;2.47;;;;;;;5.56;68.02;101274.69;4961582;28;20162;-38
2022/10/11 06:56:58;;;;;;;15.90;2.22;;;;;;;5.59;68.10;101279.94;4964120;28;20101;-39
2022/10/11 06:59:24;;;;;;;9.57;4.25;;;;;;;5.63;68.97;101274.09;4958168;28;20074;-39
2022/10/11 07:01:51;;;;;;;6.22;3.65;;;;;;;5.70;68.54;101279.44;4963338;28;20146;-38
2022/10/11 07:04:17;;;;;;;7.47;3.00;;;;;;;5.75;68.82;101280.53;4964402;28;20046;-40
2022/10/11 07:06:44;;;;;;;9.40;1.92;;;;;;;5.79;68.28;101284.94;4964592;28;20136;-40
2022/10/11 07:09:11;;;;;;;7.63;1.48;;;;;;;5.85;68.00;101282.63;4964686;28;20054;-39
2022/10/11 07:11:37;;;;;;;8.00;1.55;;;;;;;5.91;68.20;101290.53;4963867;28;20054;-38
2022/10/11 07:14:06;;;;;;;11.00;3.58;;;;;;;5.98;67.70;101285.63;4963928;28;20117;-38
2022/10/11 07:16:35;;;;;;;10.52;3.17;;;;;;;6.03;68.45;101286.66;4948310;28;20065;-39
2022/10/11 07:19:03;;;;;;;8.75;3.30;;;;;;;6.10;67.65;101286.09;4963522;28;20058;-39
2022/10/11 07:21:32;;;;;;;10.23;1.98;;;;;;;6.16;67.63;101295.72;4958800;28;20169;-39
2022/10/11 07:23:59;;;;;;;12.13;1.83;;;;;;;6.23;67.96;101296.81;4962709;28;20049;-39
2022/10/11 07:26:27;;;;;;;8.60;3.28;;;;;;;6.29;68.89;101297.91;4964840;28;20051;-39
2022/10/11 07:28:59;;;;;;;6.53;3.00;;;;;;;6.36;68.49;101299.00;4959598;28;20065;-39
2022/10/11 07:31:26;;;;;;;10.43;3.67;;;;;;;6.46;67.36;101304.47;4959590;28;20046;-39
2022/10/11 07:33:53;;;;;;;7.00;2.20;;;;;;;6.59;67.39;101304.09;4961441;28;20450;-40
2022/10/11 07:36:21;;;;;;;7.60;2.72;;;;;;;6.71;69.28;101311.31;4962696;28;20145;-40
2022/10/11 07:38:50;;;;;;;12.93;3.65;;;;;;;6.83;69.13;101310.88;4969112;28;20050;-39
2022/10/11 07:41:17;;;;;;;11.60;2.83;;;;;;;6.97;67.88;101307.84;4966716;28;20137;-38
2022/10/11 07:43:46;;;;;;;19.63;5.78;;;;;;;7.10;69.33;101309.13;4966635;28;20069;-39
2022/10/11 07:46:13;;;;;;;15.68;4.85;;;;;;;7.24;68.60;101301.84;4963294;28;20149;-39
2022/10/11 07:48:40;;;;;;;15.95;5.53;;;;;;;7.39;68.58;101311.72;4966361;28;20086;-39
2022/10/11 07:53:58;;;;;;;26.75;8.68;;;;;;;7.68;67.97;101304.91;5072691;27;20393;-40
2022/10/11 07:56:32;;;;;;;24.05;9.15;;;;;;;7.87;68.38;101314.88;5038173;28;20127;-39
2022/10/11 07:59:02;;;;;;;22.38;8.13;;;;;;;8.18;67.93;101315.75;5035466;28;20136;-40
2022/10/11 08:01:29;;;;;;;25.60;6.55;;;;;;;8.53;67.81;101313.25;5034641;28;20735;-40
2022/10/11 08:03:57;;;;;;;14.77;4.82;;;;;;;8.80;68.30;101306.16;5035364;28;20077;-40
2022/10/11 08:06:28;;;;;;;14.75;5.38;;;;;;;9.13;67.76;101315.59;5043056;28;20068;-39
2022/10/11 08:08:58;;;;;;;11.70;3.75;;;;;;;9.38;66.97;101318.72;5033614;28;20052;-40
2022/10/11 08:11:27;;;;;;;15.65;4.07;;;;;;;9.74;67.00;101319.50;5037291;28;20129;-40
2022/10/11 08:13:54;;;;;;;15.90;4.03;;;;;;;10.29;66.66;101319.75;5033297;28;20744;-40
2022/10/11 08:16:21;;;;;;;16.80;3.65;;;;;;;10.88;65.59;101324.25;5021937;28;20896;-41
2022/10/11 08:18:47;;;;;;;16.38;3.53;;;;;;;11.41;64.31;101325.03;5024972;28;20412;-48
2022/10/11 08:21:16;;;;;;;14.93;5.13;;;;;;;12.00;63.18;101325.84;5038505;28;20188;-41
2022/10/11 08:23:43;;;;;;;12.07;3.00;;;;;;;12.48;62.75;101317.72;5038321;28;20045;-41
2022/10/11 08:26:10;;;;;;;14.48;2.35;;;;;;;13.01;63.07;101318.16;5036215;28;20470;-42
2022/10/11 08:28:37;;;;;;;8.55;3.08;;;;;;;13.61;61.94;101319.41;5046796;28;20168;-40
2022/10/11 08:31:04;;;;;;;9.52;2.25;;;;;;;14.10;60.31;101321.38;5054153;28;20687;-40
2022/10/11 08:33:31;;;;;;;12.70;2.53;;;;;;;14.79;60.15;101318.88;5054735;28;20610;-42
2022/10/11 08:35:58;;;;;;;5.88;2.05;;;;;;;15.71;58.75;101320.47;5057190;28;20059;-41
2022/10/11 08:38:24;;;;;;;9.32;2.45;;;;;;;16.66;57.05;101318.22;5065429;28;20127;-48
2022/10/11 08:40:54;;;;;;;12.30;2.85;;;;;;;17.55;55.81;101317.41;5063431;28;20643;-42
2022/10/11 08:46:23;;;;;;;14.48;6.05;;;;;;;18.88;52.76;101331.31;5148783;27;20404;-43
2022/10/11 08:48:51;;;;;;;11.98;4.60;;;;;;;18.99;53.50;101324.09;5115301;28;20043;-41
2022/10/11 08:51:23;;;;;;;9.10;4.03;;;;;;;19.12;53.93;101323.91;5119350;28;20078;-42
2022/10/11 08:53:59;;;;;;;19.63;7.15;;;;;;;19.68;53.38;101322.84;5093583;28;20131;-42
2022/10/11 08:56:36;;;;;;;17.25;6.10;;;;;;;20.49;52.71;101315.81;5122885;28;20051;-41
2022/10/11 08:59:13;;;;;;;;;;;;;;;21.34;53.05;101324.25;5100606;28;20039;-41
2022/10/11 09:01:56;;;;;;;17.17;5.97;;;;;;;22.14;50.53;101320.19;5121406;28;20006;-43
2022/10/11 09:04:23;;;;;;;19.65;6.70;;;;;;;22.87;49.08;101324.94;5116026;27;20050;-41
2022/10/11 09:07:03;;;;;;;13.18;5.07;;;;;;;23.51;47.49;101326.25;5119408;28;20051;-45
2022/10/11 09:10:02;;;;;;;25.65;7.30;;;;;;;24.21;46.01;101330.69;5121392;27;20047;-44
2022/10/11 09:12:56;;;;;;;19.83;6.28;;;;;;;24.96;45.45;101322.38;5105225;28;20146;-42
2022/10/11 09:26:32;;;;;;;10.57;3.92;;;;;;;26.64;39.84;101319.94;5103038;27;20745;-44
2022/10/11 09:29:38;;;;;;;11.55;2.80;;;;;;;27.05;39.88;101328.56;5026413;28;20045;-46
2022/10/11 09:32:13;;;;;;;7.88;1.92;;;;;;;27.47;38.72;101331.66;5042819;28;20064;-45
2022/10/11 09:34:40;;;;;;;9.73;2.42;;;;;;;27.60;37.57;101329.19;5057145;28;20104;-43
2022/10/11 09:39:57;;;;;;;8.57;2.47;;;;;;;27.86;36.85;101324.25;5050980;27;20398;-43
2022/10/11 09:42:24;;;;;;;7.30;2.78;;;;;;;27.83;37.30;101319.13;5015589;28;20059;-42
2022/10/11 09:44:51;;;;;;;7.15;1.30;;;;;;;27.59;37.90;101325.66;5029836;28;20691;-44
2022/10/11 09:47:22;;;;;;;8.55;3.40;;;;;;;27.40;36.92;101320.50;5031671;28;20544;-46
2022/10/11 09:49:56;;;;;;;8.88;3.08;;;;;;;27.08;37.11;101313.28;5030311;28;20164;-43
2022/10/11 09:52:23;;;;;;;8.18;2.60;;;;;;;26.89;36.91;101323.13;5027991;28;20080;-42
2022/10/11 09:54:54;;;;;;;9.27;4.18;;;;;;;26.65;37.30;101321.63;5029722;28;20045;-44
2022/10/11 09:57:25;;;;;;;14.88;5.72;;;;;;;26.61;38.15;101322.75;5033166;28;20053;-43
2022/10/11 10:00:20;;;;;;;15.18;3.95;;;;;;;26.81;38.01;101315.53;5032390;28;20053;-43
2022/10/11 10:02:48;;;;;;;;;;;;;;;27.18;37.42;101312.78;5029717;28;20091;-45
2022/10/11 10:10:48;;;;;;;10.75;1.67;;;;;;;27.54;36.00;101313.56;5006729;28;20405;-45
2022/10/11 10:15:55;;;;;;;7.90;2.13;;;;;;;27.54;35.10;101313.56;5024752;28;20426;-44
2022/10/11 10:21:00;;;;;;;7.20;1.90;;;;;;;27.62;35.77;101306.00;5071004;27;20402;-45
2022/10/11 10:23:30;;;;;;;9.45;1.92;;;;;;;27.62;34.90;101311.31;5036351;28;20059;-46
2022/10/11 10:26:19;;;;;;;6.70;1.50;;;;;;;27.30;35.25;101301.53;5032951;28;20055;-44
2022/10/11 10:35:04;;;;;;;6.15;2.08;;;;;;;25.75;35.45;101296.78;5029315;28;20402;-42
2022/10/11 10:37:37;;;;;;;9.60;1.60;;;;;;;25.38;36.48;101308.13;5016112;28;20478;-42
2022/10/11 10:40:12;;;;;;;6.40;1.50;;;;;;;25.08;36.68;101295.31;5013957;28;20052;-42
2022/10/11 10:42:39;;;;;;;6.50;1.58;;;;;;;24.82;37.25;101299.91;5015473;28;20037;-45
2022/10/11 10:45:14;;;;;;;10.77;1.75;;;;;;;24.58;37.02;101297.41;5012266;28;20465;-42
2022/10/11 10:48:16;;;;;;;7.32;1.15;;;;;;;24.28;37.25;101295.09;5015425;28;20054;-44
2022/10/11 10:53:33;;;;;;;7.95;2.15;;;;;;;23.74;37.60;101290.09;5095242;27;20404;-44
2022/10/11 10:56:11;;;;;;;8.43;1.65;;;;;;;23.46;38.19;101293.81;5074369;28;20761;-44
2022/10/11 11:01:21;;;;;;;6.70;1.50;;;;;;;22.99;39.43;101287.53;5032431;27;20762;-45
2022/10/11 11:04:23;;;;;;;6.90;2.22;;;;;;;22.68;39.39;101278.03;4999613;28;20038;-42
2022/10/11 11:06:57;;;;;;;8.25;2.35;;;;;;;22.41;39.82;101291.19;4993416;28;20136;-43
2022/10/11 11:18:36;;;;;;;9.45;2.50;;;;;;;21.38;41.24;101275.84;5035388;28;20382;-45
2022/10/11 11:23:49;;;;;;;5.72;0.98;;;;;;;21.03;41.33;101281.16;5016209;28;20419;-43
2022/10/11 11:26:55;;;;;;;6.57;1.13;;;;;;;20.80;41.45;101288.75;5058199;28;20384;-44
2022/10/11 11:30:01;;;;;;;9.15;1.65;;;;;;;20.58;41.64;101280.53;5047388;28;20095;-41
2022/10/11 11:35:44;;;;;;;4.93;1.42;;;;;;;20.20;42.15;101277.94;5020068;28;20431;-42
2022/10/11 11:38:21;;;;;;;7.78;1.45;;;;;;;20.12;42.46;101285.13;5026308;28;20484;-41
2022/10/11 11:40:58;;;;;;;9.98;1.27;;;;;;;19.99;42.59;101285.41;5018509;28;20057;-41
2022/10/11 11:43:33;;;;;;;6.50;0.93;;;;;;;19.93;42.83;101280.28;5016011;28;20073;-42
2022/10/11 11:46:09;;;;;;;10.18;1.13;;;;;;;19.87;42.72;101275.13;5017153;28;20049;-43
2022/10/11 11:48:37;;;;;;;7.53;1.45;;;;;;;19.83;43.11;101276.97;5011857;28;20070;-41
2022/10/11 11:59:33;;;;;;;6.22;1.45;;;;;;;19.75;43.22;101261.38;5062636;27;21455;-42
2022/10/11 12:04:52;;;;;;;5.43;1.45;;;;;;;19.64;43.33;101279.13;5008261;27;20428;-42
2022/10/11 12:07:23;;;;;;;5.13;0.90;;;;;;;19.51;42.93;101271.50;5000734;28;20149;-42
2022/10/11 12:10:12;;;;;;;6.07;0.60;;;;;;;19.36;42.95;101263.94;5001745;28;20592;-41
2022/10/11 12:12:39;;;;;;;7.25;2.63;;;;;;;19.10;43.29;101263.56;5005369;28;20393;-43
2022/10/11 12:18:03;;;;;;;6.88;1.55;;;;;;;18.72;43.54;101255.47;5088948;27;20788;-42
2022/10/11 12:20:39;;;;;;;8.25;0.95;;;;;;;18.70;44.48;101248.47;5071902;28;20079;-41
2022/10/11 12:31:34;;;;;;;5.35;0.90;;;;;;;18.21;43.94;101236.16;5026709;27;20408;-41
2022/10/11 12:42:21;;;;;;;9.52;3.15;;;;;;;17.73;44.74;101239.44;5033983;28;20397;-42
2022/10/11 12:48:03;;;;;;;11.10;3.50;;;;;;;17.59;44.91;101234.38;5050340;28;20403;-41
2022/10/11 12:56:24;;;;;;;4.45;1.95;;;;;;;17.64;45.39;101218.63;5132189;27;20404;-42
2022/10/11 12:59:01;;;;;;;4.50;1.23;;;;;;;17.76;45.81;101212.34;5079471;28;20466;-42
2022/10/11 13:01:35;;;;;;;8.70;3.00;;;;;;;17.99;45.42;101215.50;5071949;28;20179;-42
2022/10/11 13:04:07;;;;;;;5.03;2.95;;;;;;;18.19;45.01;101216.97;5070696;28;20063;-42
2022/10/11 13:06:53;;;;;;;3.47;1.52;;;;;;;18.22;43.99;101211.69;5070471;28;20135;-42
2022/10/11 13:12:20;;;;;;;9.20;1.60;;;;;;;17.96;44.61;101209.41;5049793;27;20403;-41
2022/10/11 13:14:59;;;;;;;4.82;1.10;;;;;;;17.98;44.63;101205.91;5017580;28;20588;-42
2022/10/11 13:17:32;;;;;;;3.75;0.93;;;;;;;17.95;43.86;101200.72;4994230;28;20129;-42
2022/10/11 13:22:44;;;;;;;12.88;2.58;;;;;;;18.24;43.39;101191.53;5074574;27;20421;-42
2022/10/11 13:25:16;;;;;;;18.77;5.68;;;;;;;18.14;44.06;101186.47;5039485;28;20052;-42
2022/10/11 13:27:44;;;;;;;9.07;2.75;;;;;;;18.17;43.73;101197.78;5038012;28;20141;-42
2022/10/11 13:30:19;;;;;;;7.82;3.40;;;;;;;18.14;43.69;101189.97;5046827;28;20057;-41
2022/10/11 13:32:46;;;;;;;14.02;3.80;;;;;;;18.16;43.67;101189.94;5058855;28;20045;-42
2022/10/11 13:35:33;;;;;;;9.00;3.00;;;;;;;18.07;43.44;101181.28;5043146;28;20143;-42
2022/10/11 13:38:00;;;;;;;11.02;3.50;;;;;;;18.02;44.28;101187.50;5033705;28;20088;-41
2022/10/11 13:40:28;;;;;;;13.98;4.13;;;;;;;17.97;44.08;101185.81;5063433;28;20115;-41
2022/10/11 13:42:56;;;;;;;12.40;3.50;;;;;;;17.95;44.49;101176.25;5076626;28;20131;-42
2022/10/11 13:45:25;;;;;;;9.95;3.28;;;;;;;17.98;44.65;101182.31;5075110;28;20123;-42
2022/10/11 13:47:53;;;;;;;9.02;2.97;;;;;;;18.01;44.81;101170.03;5074830;28;20123;-42
2022/10/11 13:50:32;;;;;;;7.93;2.85;;;;;;;17.99;44.44;101168.31;5074212;28;20056;-42